createdAt,value
2023-05-06T00:02:25.817Z,76.70
2023-05-06T00:04:53.905Z,76.60
2023-05-06T00:07:22.451Z,77.11
2023-05-06T00:09:51.628Z,77.19
2023-05-06T00:12:19.206Z,78.23
2023-05-06T00:14:46.973Z,77.47
2023-05-06T00:17:14.939Z,76.42
2023-05-06T00:19:44.469Z,76.76
2023-05-06T00:22:12.370Z,76.88
2023-05-06T00:24:40.155Z,76.61
2023-05-06T00:27:09.275Z,76.72
2023-05-06T00:29:39.430Z,76.77
2023-05-06T00:32:07.281Z,77.05
2023-05-06T00:34:35.179Z,76.68
2023-05-06T00:37:03.184Z,76.73
2023-05-06T00:39:31.167Z,77.32
2023-05-06T00:42:02.273Z,77.02
2023-05-06T00:44:31.813Z,76.63
2023-05-06T00:47:00.772Z,76.75
2023-05-06T00:49:29.159Z,77.05
2023-05-06T00:51:57.364Z,76.78
2023-05-06T00:54:26.514Z,77.30
2023-05-06T00:56:54.115Z,77.95
2023-05-06T00:59:21.905Z,76.81
2023-05-06T01:01:52.186Z,76.63
2023-05-06T01:04:19.975Z,77.26
2023-05-06T01:06:52.705Z,77.87
2023-05-06T01:09:22.549Z,77.05
2023-05-06T01:11:53.392Z,77.44
2023-05-06T01:14:27.568Z,76.91
2023-05-06T01:17:00.191Z,77.20
2023-05-06T01:19:38.893Z,77.62
2023-05-06T01:22:10.633Z,77.55
2023-05-06T01:24:41.505Z,77.08
2023-05-06T01:27:10.398Z,77.69
2023-05-06T01:29:41.760Z,77.50
2023-05-06T01:32:27.422Z,77.93
2023-05-06T01:35:01.175Z,77.12
2023-05-06T01:37:33.393Z,77.59
2023-05-06T01:40:03.813Z,77.21
2023-05-06T01:42:32.474Z,77.76
2023-05-06T01:45:04.076Z,77.97
2023-05-06T01:47:32.071Z,78.28
2023-05-06T01:49:59.810Z,77.79
2023-05-06T01:52:27.847Z,77.99
2023-05-06T01:54:55.621Z,78.50
2023-05-06T01:57:24.738Z,77.65
2023-05-06T01:59:52.650Z,77.70
2023-05-06T02:02:20.504Z,77.92
2023-05-06T02:04:48.239Z,78.75
2023-05-06T02:07:16.028Z,78.58
2023-05-06T02:09:43.821Z,78.37
2023-05-06T02:12:11.709Z,77.91
2023-05-06T02:14:42.762Z,78.48
2023-05-06T02:17:10.676Z,77.83
2023-05-06T02:19:38.440Z,77.59
2023-05-06T02:22:06.185Z,78.16
2023-05-06T02:24:33.985Z,78.15
2023-05-06T02:27:02.278Z,77.96
2023-05-06T02:29:30.043Z,78.09
2023-05-06T02:31:59.237Z,77.79
2023-05-06T02:34:26.841Z,78.52
2023-05-06T02:36:54.575Z,78.10
2023-05-06T02:39:22.487Z,77.47
2023-05-06T02:41:50.249Z,77.80
2023-05-06T02:44:18.151Z,77.50
2023-05-06T02:46:46.072Z,78.05
2023-05-06T02:49:15.360Z,77.85
2023-05-06T02:51:43.270Z,77.75
2023-05-06T02:54:11.039Z,77.55
2023-05-06T02:56:38.790Z,78.02
2023-05-06T02:59:07.030Z,77.81
2023-05-06T03:01:34.795Z,78.38
2023-05-06T03:04:02.905Z,78.14
2023-05-06T03:06:32.639Z,78.19
2023-05-06T03:09:00.403Z,78.08
2023-05-06T03:11:30.804Z,78.62
2023-05-06T03:13:58.961Z,78.60
2023-05-06T03:16:26.747Z,78.87
2023-05-06T03:18:54.484Z,78.84
2023-05-06T03:21:22.390Z,78.68
2023-05-06T03:23:51.594Z,78.18
2023-05-06T03:26:19.404Z,78.51
2023-05-06T03:28:47.234Z,78.49
2023-05-06T03:31:15.025Z,78.14
2023-05-06T03:33:43.025Z,77.91
2023-05-06T03:36:12.773Z,78.01
2023-05-06T03:38:40.709Z,78.59
2023-05-06T03:41:09.886Z,78.45
2023-05-06T03:43:37.406Z,79.17
2023-05-06T03:46:05.558Z,78.40
2023-05-06T03:48:33.379Z,78.76
2023-05-06T03:51:01.244Z,78.47
2023-05-06T03:53:29.148Z,78.02
2023-05-06T03:55:56.935Z,78.87
2023-05-06T03:58:26.385Z,78.90
2023-05-06T04:00:54.157Z,78.78
2023-05-06T04:03:22.033Z,78.28
2023-05-06T04:05:50.670Z,79.14
2023-05-06T04:08:18.457Z,78.71
2023-05-06T04:10:46.597Z,78.60
2023-05-06T04:13:14.412Z,79.17
2023-05-06T04:15:43.573Z,78.81
2023-05-06T04:18:11.378Z,79.37
2023-05-06T04:20:39.102Z,78.67
2023-05-06T04:23:06.979Z,78.34
2023-05-06T04:25:35.820Z,78.09
2023-05-06T04:28:03.588Z,78.14
2023-05-06T04:30:31.365Z,78.91
2023-05-06T04:33:00.515Z,78.27
2023-05-06T04:35:28.114Z,80.06
2023-05-06T04:37:56.661Z,78.62
2023-05-06T04:40:26.413Z,78.39
2023-05-06T04:42:54.252Z,77.51
2023-05-06T04:45:22.297Z,77.66
2023-05-06T04:47:50.113Z,77.58
2023-05-06T04:50:19.484Z,78.03
2023-05-06T04:52:47.250Z,77.74
2023-05-06T04:55:15.123Z,77.41
2023-05-06T04:57:45.083Z,77.35
2023-05-06T05:00:14.640Z,77.72
2023-05-06T05:02:42.503Z,77.25
2023-05-06T05:05:10.766Z,76.93
2023-05-06T05:07:40.049Z,77.55
2023-05-06T05:10:09.194Z,78.22
2023-05-06T05:12:36.931Z,77.57
2023-05-06T05:15:05.341Z,77.13
2023-05-06T05:17:33.193Z,76.59
2023-05-06T05:20:01.078Z,76.46
2023-05-06T05:22:28.801Z,76.56
2023-05-06T05:24:57.976Z,77.03
2023-05-06T05:27:25.912Z,76.77
2023-05-06T05:29:53.656Z,76.51
2023-05-06T05:32:22.813Z,76.95
2023-05-06T05:34:50.602Z,76.39
2023-05-06T05:37:18.343Z,75.97
2023-05-06T05:39:46.080Z,76.25
2023-05-06T05:42:15.192Z,75.97
2023-05-06T05:44:42.763Z,76.63
2023-05-06T05:47:10.629Z,76.22
2023-05-06T05:49:38.348Z,75.67
2023-05-06T05:52:07.227Z,75.63
2023-05-06T05:54:35.057Z,75.71
2023-05-06T05:57:03.036Z,75.58
2023-05-06T05:59:32.904Z,75.18
2023-05-06T06:02:00.646Z,75.16
2023-05-06T06:04:28.490Z,75.05
2023-05-06T06:06:57.893Z,75.55
2023-05-06T06:09:25.727Z,75.35
2023-05-06T06:11:53.478Z,74.83
2023-05-06T06:14:21.193Z,74.73
2023-05-06T06:16:50.354Z,74.68
2023-05-06T06:19:18.203Z,74.83
2023-05-06T06:21:45.913Z,75.01
2023-05-06T06:24:13.848Z,74.10
2023-05-06T06:26:41.612Z,74.20
2023-05-06T06:29:09.389Z,74.61
2023-05-06T06:31:39.720Z,74.30
2023-05-06T06:34:12.517Z,73.68
2023-05-06T06:36:45.112Z,74.06
2023-05-06T06:39:13.055Z,73.74
2023-05-06T06:41:40.956Z,73.64
2023-05-06T06:44:08.744Z,73.47
2023-05-06T06:46:36.598Z,73.68
2023-05-06T06:49:04.563Z,73.25
2023-05-06T06:51:33.798Z,73.10
2023-05-06T06:54:01.574Z,73.11
2023-05-06T06:56:29.357Z,73.58
2023-05-06T06:58:57.245Z,73.08
2023-05-06T07:01:25.056Z,72.47
2023-05-06T07:03:52.868Z,72.65
2023-05-06T07:06:20.681Z,71.90
2023-05-06T07:08:49.849Z,72.35
2023-05-06T07:11:17.797Z,71.80
2023-05-06T07:13:45.608Z,71.41
2023-05-06T07:16:13.344Z,71.16
2023-05-06T07:18:41.157Z,71.29
2023-05-06T07:21:08.969Z,70.55
2023-05-06T07:23:36.749Z,71.52
2023-05-06T07:26:06.033Z,70.47
2023-05-06T07:28:33.828Z,70.21
2023-05-06T07:31:01.612Z,70.38
2023-05-06T07:33:29.444Z,70.07
2023-05-06T07:35:57.211Z,69.14
2023-05-06T07:38:25.082Z,69.16
2023-05-06T07:40:53.031Z,69.15
2023-05-06T07:43:22.934Z,68.89
2023-05-06T07:45:50.892Z,68.56
2023-05-06T07:48:20.149Z,67.52
2023-05-06T07:50:48.173Z,64.97
2023-05-06T07:53:16.019Z,59.33
2023-05-06T07:55:43.756Z,55.42
2023-05-06T07:58:11.606Z,54.06
2023-05-06T08:00:40.929Z,53.13
2023-05-06T08:03:08.799Z,50.31
2023-05-06T08:05:36.727Z,50.73
2023-05-06T08:08:04.953Z,50.45
2023-05-06T08:10:32.739Z,48.45
2023-05-06T08:13:00.585Z,48.67
2023-05-06T08:15:28.479Z,47.31
2023-05-06T08:18:02.105Z,47.25
2023-05-06T08:20:35.109Z,47.47
2023-05-06T08:23:02.837Z,46.02
2023-05-06T08:25:30.745Z,45.71
2023-05-06T08:27:58.574Z,46.03
2023-05-06T08:30:26.509Z,45.88
2023-05-06T08:32:54.330Z,45.51
2023-05-06T08:35:23.490Z,45.44
2023-05-06T08:37:51.272Z,45.15
2023-05-06T08:40:21.035Z,45.01
2023-05-06T08:42:49.794Z,45.38
2023-05-06T08:45:18.446Z,45.58
2023-05-06T08:47:46.959Z,45.26
2023-05-06T08:50:14.889Z,44.03
2023-05-06T08:52:44.000Z,44.89
2023-05-06T08:55:12.365Z,45.40
2023-05-06T08:57:41.358Z,45.15
2023-05-06T09:00:11.182Z,45.05
2023-05-06T09:02:41.310Z,45.32
2023-05-06T09:05:11.442Z,44.63
2023-05-06T09:07:39.598Z,45.33
2023-05-06T09:10:13.979Z,45.26
2023-05-06T09:12:41.983Z,45.77
2023-05-06T09:15:10.958Z,45.87
2023-05-06T09:17:39.356Z,46.06
2023-05-06T09:20:09.719Z,45.02
2023-05-06T09:22:39.352Z,44.78
2023-05-06T09:25:09.823Z,45.21
2023-05-06T09:27:37.930Z,45.71
2023-05-06T09:30:07.681Z,45.56
2023-05-06T09:32:39.310Z,46.17
2023-05-06T09:35:09.386Z,46.36
2023-05-06T09:37:37.377Z,45.51
2023-05-06T09:40:06.073Z,44.99
2023-05-06T09:42:35.771Z,44.77
2023-05-06T09:45:04.065Z,45.03
2023-05-06T09:47:34.998Z,44.31
2023-05-06T09:50:03.548Z,45.04
2023-05-06T09:52:31.881Z,44.86
2023-05-06T09:54:59.719Z,44.86
2023-05-06T09:57:27.812Z,43.78
2023-05-06T09:59:57.083Z,43.74
2023-05-06T10:02:25.372Z,44.18
2023-05-06T10:04:53.645Z,44.26
2023-05-06T10:07:23.761Z,44.89
2023-05-06T10:09:52.219Z,45.16
2023-05-06T10:12:20.402Z,44.71
2023-05-06T10:14:48.479Z,44.85
2023-05-06T10:17:19.546Z,44.09
2023-05-06T10:19:47.886Z,43.61
2023-05-06T10:22:19.207Z,43.74
2023-05-06T10:24:50.076Z,43.80
2023-05-06T10:27:19.924Z,43.98
2023-05-06T10:29:49.215Z,43.24
2023-05-06T10:32:21.460Z,43.59
2023-05-06T10:34:55.119Z,43.50
2023-05-06T10:37:25.905Z,43.82
2023-05-06T10:39:55.248Z,43.48
2023-05-06T10:42:27.606Z,44.95
2023-05-06T10:44:59.236Z,44.94
2023-05-06T10:47:28.625Z,45.22
2023-05-06T10:50:21.904Z,44.45
2023-05-06T10:52:52.408Z,44.60
2023-05-06T10:55:28.463Z,44.19
2023-05-06T10:57:57.434Z,43.57
2023-05-06T11:00:25.604Z,42.79
2023-05-06T11:02:58.902Z,43.64
2023-05-06T11:05:26.797Z,42.88
2023-05-06T11:07:55.127Z,42.48
2023-05-06T11:10:33.086Z,42.21
2023-05-06T11:13:19.934Z,40.01
2023-05-06T11:15:50.693Z,40.85
2023-05-06T11:18:44.863Z,40.31
2023-05-06T11:21:40.677Z,38.91
2023-05-06T11:24:13.339Z,40.06
2023-05-06T11:26:44.727Z,40.76
2023-05-06T11:29:12.608Z,39.88
2023-05-06T11:31:41.818Z,40.11
2023-05-06T11:34:14.287Z,39.11
2023-05-06T11:36:50.872Z,39.59
2023-05-06T11:39:18.633Z,39.78
2023-05-06T11:41:46.379Z,39.77
2023-05-06T11:44:25.530Z,39.35
2023-05-06T11:46:53.989Z,39.82
2023-05-06T11:49:23.025Z,39.85
2023-05-06T11:51:50.821Z,40.87
2023-05-06T11:54:20.367Z,39.91
2023-05-06T11:56:50.226Z,38.67
2023-05-06T11:59:19.538Z,39.07
2023-05-06T12:01:47.502Z,40.41
2023-05-06T12:04:15.323Z,39.87
2023-05-06T12:06:44.630Z,40.79
2023-05-06T12:09:13.343Z,40.86
2023-05-06T12:11:43.203Z,40.80
2023-05-06T12:14:12.897Z,40.67
2023-05-06T12:16:41.229Z,40.08
2023-05-06T12:19:09.228Z,40.03
2023-05-06T12:21:40.443Z,40.61
2023-05-06T12:24:09.676Z,41.24
2023-05-06T12:26:47.233Z,40.51
2023-05-06T12:29:19.057Z,40.95
2023-05-06T12:31:48.136Z,41.07
2023-05-06T12:34:17.302Z,40.41
2023-05-06T12:36:46.751Z,39.72
2023-05-06T12:39:17.540Z,38.66
2023-05-06T12:41:46.447Z,37.90
2023-05-06T12:44:37.267Z,34.50
2023-05-06T12:47:07.454Z,37.62
2023-05-06T12:49:49.081Z,36.35
2023-05-06T12:52:17.300Z,38.63
2023-05-06T12:54:46.977Z,38.17
2023-05-06T12:57:14.774Z,38.28
2023-05-06T12:59:44.160Z,38.47
2023-05-06T13:02:11.963Z,37.69
2023-05-06T13:04:39.804Z,37.97
2023-05-06T13:07:07.750Z,37.10
2023-05-06T13:09:35.576Z,38.58
2023-05-06T13:12:05.471Z,38.00
2023-05-06T13:14:33.257Z,37.91
2023-05-06T13:17:04.681Z,37.09
2023-05-06T13:19:33.425Z,37.17
2023-05-06T13:22:01.755Z,38.44
2023-05-06T13:24:33.037Z,37.69
2023-05-06T13:27:01.417Z,37.88
2023-05-06T13:29:30.623Z,37.68
2023-05-06T13:31:58.488Z,37.71
2023-05-06T13:34:26.270Z,37.89
2023-05-06T13:36:54.630Z,37.67
2023-05-06T13:39:22.244Z,37.72
2023-05-06T13:41:50.581Z,37.86
2023-05-06T13:44:18.459Z,38.67
2023-05-06T13:46:47.941Z,37.85
2023-05-06T13:49:15.974Z,37.69
2023-05-06T13:51:43.737Z,37.98
2023-05-06T13:54:11.533Z,38.40
2023-05-06T13:56:39.359Z,38.07
2023-05-06T13:59:08.242Z,37.41
2023-05-06T14:01:36.802Z,36.99
2023-05-06T14:04:06.149Z,37.12
2023-05-06T14:06:33.901Z,37.54
2023-05-06T14:09:01.664Z,36.99
2023-05-06T14:11:29.483Z,37.56
2023-05-06T14:13:57.405Z,37.78
2023-05-06T14:16:25.338Z,37.58
2023-05-06T14:18:53.549Z,37.82
2023-05-06T14:21:23.273Z,37.93
2023-05-06T14:23:51.080Z,38.18
2023-05-06T14:26:18.825Z,38.50
2023-05-06T14:28:46.640Z,38.50
2023-05-06T14:31:14.499Z,38.44
2023-05-06T14:33:42.282Z,38.40
2023-05-06T14:36:10.575Z,38.41
2023-05-06T14:38:39.738Z,37.80
2023-05-06T14:41:07.605Z,37.83
2023-05-06T14:43:35.436Z,37.99
2023-05-06T14:46:03.288Z,37.89
2023-05-06T14:48:32.032Z,38.23
2023-05-06T14:51:00.470Z,38.13
2023-05-06T14:53:28.278Z,38.00
2023-05-06T14:55:57.413Z,38.31
2023-05-06T14:58:25.182Z,38.14
2023-05-06T15:00:52.982Z,38.34
2023-05-06T15:03:20.921Z,37.84
2023-05-06T15:05:50.619Z,37.99
2023-05-06T15:08:18.349Z,37.89
2023-05-06T15:10:46.154Z,38.58
2023-05-06T15:13:15.467Z,38.68
2023-05-06T15:15:43.654Z,39.63
2023-05-06T15:18:13.187Z,40.26
2023-05-06T15:20:41.061Z,39.60
2023-05-06T15:23:09.022Z,40.30
2023-05-06T15:25:37.109Z,40.37
2023-05-06T15:28:06.009Z,41.43
2023-05-06T15:30:35.071Z,41.13
2023-05-06T15:33:03.463Z,41.25
2023-05-06T15:35:31.678Z,41.81
2023-05-06T15:37:59.623Z,43.54
2023-05-06T15:40:27.768Z,46.31
2023-05-06T15:42:55.868Z,49.08
2023-05-06T15:45:23.638Z,51.22
2023-05-06T15:47:54.112Z,53.11
2023-05-06T15:50:32.893Z,54.49
2023-05-06T15:53:02.467Z,57.36
2023-05-06T15:55:35.080Z,58.54
2023-05-06T15:58:09.110Z,59.76
2023-05-06T16:00:36.951Z,61.94
2023-05-06T16:03:08.073Z,63.60
2023-05-06T16:05:38.199Z,63.26
2023-05-06T16:08:06.353Z,64.59
2023-05-06T16:10:35.498Z,65.63
2023-05-06T16:13:03.583Z,66.95
2023-05-06T16:15:31.410Z,67.49
2023-05-06T16:17:59.263Z,67.97
2023-05-06T16:20:29.633Z,68.41
2023-05-06T16:22:57.450Z,69.42
2023-05-06T16:25:27.430Z,69.59
2023-05-06T16:27:55.925Z,70.21
2023-05-06T16:30:24.111Z,70.79
2023-05-06T16:32:52.084Z,70.34
2023-05-06T16:35:19.986Z,70.91
2023-05-06T16:37:49.141Z,71.53
2023-05-06T16:40:18.504Z,75.96
2023-05-06T16:42:46.431Z,69.89
2023-05-06T16:45:14.412Z,70.74
2023-05-06T16:47:42.412Z,70.89
2023-05-06T16:50:10.957Z,71.20
2023-05-06T16:52:39.057Z,71.39
2023-05-06T16:55:09.243Z,71.52
2023-05-06T16:57:37.510Z,71.38
2023-05-06T17:00:11.986Z,71.80
2023-05-06T17:02:41.007Z,72.00
2023-05-06T17:05:09.377Z,71.51
2023-05-06T17:07:37.150Z,71.82
2023-05-06T17:10:05.378Z,72.59
2023-05-06T17:12:34.596Z,72.50
2023-05-06T17:15:02.624Z,72.92
2023-05-06T17:17:30.749Z,72.52
2023-05-06T17:19:59.324Z,72.78
2023-05-06T17:22:27.142Z,72.04
2023-05-06T17:24:55.086Z,73.25
2023-05-06T17:27:23.114Z,73.38
2023-05-06T17:29:52.843Z,73.73
2023-05-06T17:32:20.840Z,73.88
2023-05-06T17:34:48.706Z,73.67
2023-05-06T17:37:16.525Z,73.92
2023-05-06T17:39:46.250Z,73.41
2023-05-06T17:42:14.061Z,73.04
2023-05-06T17:44:42.845Z,74.01
2023-05-06T17:47:12.175Z,73.35
2023-05-06T17:49:39.977Z,73.61
2023-05-06T17:52:07.787Z,73.71
2023-05-06T17:54:36.558Z,73.93
2023-05-06T17:57:04.657Z,74.05
2023-05-06T17:59:32.612Z,73.61
2023-05-06T18:02:01.157Z,74.04
2023-05-06T18:04:30.401Z,73.95
2023-05-06T18:06:58.166Z,74.33
2023-05-06T18:09:25.943Z,74.65
2023-05-06T18:11:53.732Z,75.24
2023-05-06T18:14:21.609Z,75.60
2023-05-06T18:16:49.378Z,75.85
2023-05-06T18:19:17.172Z,76.12
2023-05-06T18:21:47.010Z,75.98
2023-05-06T18:24:16.614Z,76.26
2023-05-06T18:26:46.092Z,76.04
2023-05-06T18:29:14.425Z,76.20
2023-05-06T18:31:42.801Z,75.96
2023-05-06T18:34:10.664Z,75.86
2023-05-06T18:36:38.832Z,75.89
2023-05-06T18:39:08.270Z,75.87
2023-05-06T18:41:36.311Z,76.30
2023-05-06T18:44:04.673Z,76.13
2023-05-06T18:46:32.507Z,76.26
2023-05-06T18:49:00.926Z,76.59
2023-05-06T18:51:28.877Z,76.31
2023-05-06T18:53:56.836Z,76.30
2023-05-06T18:56:26.064Z,76.42
2023-05-06T18:58:53.889Z,76.43
2023-05-06T19:01:21.958Z,76.62
2023-05-06T19:03:49.930Z,76.47
2023-05-06T19:06:17.797Z,76.95
2023-05-06T19:08:45.591Z,76.49
2023-05-06T19:11:15.613Z,77.27
2023-05-06T19:13:45.084Z,77.86
2023-05-06T19:16:13.461Z,77.52
2023-05-06T19:18:41.492Z,77.96
2023-05-06T19:21:10.217Z,78.78
2023-05-06T19:23:38.097Z,78.28
2023-05-06T19:26:06.780Z,78.21
2023-05-06T19:28:34.883Z,78.69
2023-05-06T19:31:07.588Z,78.68
2023-05-06T19:33:35.455Z,78.89
2023-05-06T19:36:03.386Z,78.65
2023-05-06T19:38:31.537Z,78.71
2023-05-06T19:40:59.363Z,79.03
2023-05-06T19:43:27.205Z,79.03
2023-05-06T19:45:55.114Z,79.41
2023-05-06T19:48:24.553Z,79.84
2023-05-06T19:50:54.072Z,80.02
2023-05-06T19:53:22.815Z,80.13
2023-05-06T19:55:50.842Z,79.70
2023-05-06T19:58:19.361Z,79.94
2023-05-06T20:00:47.144Z,78.96
2023-05-06T20:03:15.088Z,79.38
2023-05-06T20:05:44.302Z,79.73
2023-05-06T20:08:12.171Z,82.82
2023-05-06T20:10:40.035Z,79.25
2023-05-06T20:13:08.049Z,80.10
2023-05-06T20:15:36.498Z,79.42
2023-05-06T20:18:04.512Z,79.91
2023-05-06T20:20:34.351Z,80.71
2023-05-06T20:23:04.096Z,79.87
2023-05-06T20:25:32.403Z,80.41
2023-05-06T20:28:00.467Z,81.17
2023-05-06T20:30:28.287Z,81.56
2023-05-06T20:32:56.356Z,82.16
2023-05-06T20:35:24.434Z,82.02
2023-05-06T20:37:54.432Z,82.20
2023-05-06T20:40:23.893Z,82.54
2023-05-06T20:42:51.780Z,82.38
2023-05-06T20:45:19.616Z,81.72
2023-05-06T20:47:47.526Z,82.13
2023-05-06T20:50:17.265Z,81.87
2023-05-06T20:52:46.157Z,81.46
2023-05-06T20:55:14.665Z,82.40
2023-05-06T20:57:46.966Z,82.12
2023-05-06T21:00:14.968Z,82.26
2023-05-06T21:02:42.905Z,82.72
2023-05-06T21:05:11.491Z,81.40
2023-05-06T21:07:39.621Z,81.93
2023-05-06T21:10:07.999Z,82.17
2023-05-06T21:12:35.831Z,82.31
2023-05-06T21:15:05.848Z,82.00
2023-05-06T21:17:33.830Z,82.22
2023-05-06T21:20:03.546Z,81.59
2023-05-06T21:22:32.027Z,82.03
2023-05-06T21:24:59.865Z,81.99
2023-05-06T21:27:27.700Z,82.08
2023-05-06T21:29:55.523Z,81.82
2023-05-06T21:32:24.755Z,81.34
2023-05-06T21:34:52.614Z,81.85
2023-05-06T21:37:20.453Z,81.77
2023-05-06T21:39:48.241Z,81.70
2023-05-06T21:42:16.863Z,81.96
2023-05-06T21:44:44.694Z,82.10
2023-05-06T21:47:12.488Z,81.60
2023-05-06T21:49:41.652Z,81.77
2023-05-06T21:52:09.207Z,82.68
2023-05-06T21:54:37.068Z,81.58
2023-05-06T21:57:08.089Z,81.20
2023-05-06T21:59:36.363Z,81.36
2023-05-06T22:02:04.757Z,81.80
2023-05-06T22:04:32.664Z,82.23
2023-05-06T22:07:01.833Z,81.75
2023-05-06T22:09:29.412Z,83.04
2023-05-06T22:11:57.843Z,81.57
2023-05-06T22:14:37.282Z,81.36
2023-05-06T22:17:10.564Z,81.54
2023-05-06T22:19:38.718Z,82.32
2023-05-06T22:22:08.452Z,82.62
2023-05-06T22:24:36.246Z,82.58
2023-05-06T22:27:04.079Z,83.16
2023-05-06T22:29:31.909Z,82.87
2023-05-06T22:31:59.758Z,82.74
2023-05-06T22:34:27.665Z,83.13
2023-05-06T22:36:57.605Z,84.00
2023-05-06T22:39:27.408Z,83.96
2023-05-06T22:41:54.996Z,85.52
2023-05-06T22:44:22.721Z,84.75
2023-05-06T22:46:50.479Z,84.15
2023-05-06T22:49:19.600Z,84.56
2023-05-06T22:51:47.171Z,85.10
2023-05-06T22:54:16.498Z,84.01
2023-05-06T22:56:45.643Z,84.07
2023-05-06T22:59:13.176Z,85.57
2023-05-06T23:01:43.405Z,84.01
2023-05-06T23:04:11.374Z,83.62
2023-05-06T23:06:40.006Z,83.93
2023-05-06T23:09:07.972Z,84.97
2023-05-06T23:11:35.832Z,84.51
2023-05-06T23:14:05.079Z,83.78
2023-05-06T23:16:33.161Z,84.57
2023-05-06T23:19:01.027Z,83.45
2023-05-06T23:21:29.310Z,84.21
2023-05-06T23:23:57.047Z,83.87
2023-05-06T23:26:24.936Z,84.34
2023-05-06T23:28:52.680Z,83.90
2023-05-06T23:31:21.910Z,83.59
2023-05-06T23:33:49.767Z,83.80
2023-05-06T23:36:17.724Z,83.48
2023-05-06T23:38:45.458Z,83.57
2023-05-06T23:41:16.085Z,82.90
2023-05-06T23:43:43.827Z,83.47
2023-05-06T23:46:11.746Z,83.63
2023-05-06T23:48:41.027Z,83.78
2023-05-06T23:51:08.607Z,85.39
2023-05-06T23:53:37.253Z,84.38
2023-05-06T23:56:05.552Z,84.57
2023-05-06T23:58:33.570Z,84.89
